sensor_id;sensor_type;location;lat;lon;timestamp;temperature;humidity
15386;DHT22;7791;47.246;9.648;2024-01-10T00:01:40;-0.60;99.90
15386;DHT22;7791;47.246;9.648;2024-01-10T00:04:23;-0.60;99.90
15386;DHT22;7791;47.246;9.648;2024-01-10T00:07:00;-0.60;99.90
15386;DHT22;7791;47.246;9.648;2024-01-10T00:15:24;-0.60;99.90
15386;DHT22;7791;47.246;9.648;2024-01-10T00:17:58;-0.80;99.90
15386;DHT22;7791;47.246;9.648;2024-01-10T00:20:46;-0.90;99.90
15386;DHT22;7791;47.246;9.648;2024-01-10T00:23:35;-1.00;99.90
15386;DHT22;7791;47.246;9.648;2024-01-10T00:26:26;-1.00;99.90
15386;DHT22;7791;47.246;9.648;2024-01-10T00:29:05;-1.20;99.90
15386;DHT22;7791;47.246;9.648;2024-01-10T00:37:34;-1.20;99.90
15386;DHT22;7791;47.246;9.648;2024-01-10T00:40:16;-1.20;99.90
15386;DHT22;7791;47.246;9.648;2024-01-10T00:42:53;-1.20;99.90
15386;DHT22;7791;47.246;9.648;2024-01-10T00:51:30;-1.30;99.90
15386;DHT22;7791;47.246;9.648;2024-01-10T00:54:05;-1.40;99.90
15386;DHT22;7791;47.246;9.648;2024-01-10T00:56:57;-1.50;99.90
15386;DHT22;7791;47.246;9.648;2024-01-10T00:59:42;-1.50;99.90
15386;DHT22;7791;47.246;9.648;2024-01-10T01:02:22;-1.40;99.90
15386;DHT22;7791;47.246;9.648;2024-01-10T01:04:52;-1.40;99.90
15386;DHT22;7791;47.246;9.648;2024-01-10T01:07:28;-1.30;99.90
15386;DHT22;7791;47.246;9.648;2024-01-10T01:10:01;-1.30;99.90
15386;DHT22;7791;47.246;9.648;2024-01-10T01:12:55;-1.30;99.90
15386;DHT22;7791;47.246;9.648;2024-01-10T01:15:30;-1.20;99.90
15386;DHT22;7791;47.246;9.648;2024-01-10T01:21:13;-1.50;99.90
15386;DHT22;7791;47.246;9.648;2024-01-10T01:24:02;-1.40;99.90
15386;DHT22;7791;47.246;9.648;2024-01-10T01:26:37;-1.50;99.90
15386;DHT22;7791;47.246;9.648;2024-01-10T01:29:25;-1.60;99.90
15386;DHT22;7791;47.246;9.648;2024-01-10T01:34:49;-1.60;99.90
15386;DHT22;7791;47.246;9.648;2024-01-10T01:37:27;-1.50;99.90
15386;DHT22;7791;47.246;9.648;2024-01-10T01:40:13;-1.50;99.90
15386;DHT22;7791;47.246;9.648;2024-01-10T01:42:46;-1.50;99.90
15386;DHT22;7791;47.246;9.648;2024-01-10T01:45:47;-1.40;99.90
15386;DHT22;7791;47.246;9.648;2024-01-10T01:48:46;-1.40;99.90
15386;DHT22;7791;47.246;9.648;2024-01-10T01:51:27;-1.50;99.90
15386;DHT22;7791;47.246;9.648;2024-01-10T01:54:06;-1.50;99.90
15386;DHT22;7791;47.246;9.648;2024-01-10T01:59:26;-1.30;99.90
15386;DHT22;7791;47.246;9.648;2024-01-10T02:02:06;-1.60;99.90
15386;DHT22;7791;47.246;9.648;2024-01-10T02:10:21;-1.40;99.90
15386;DHT22;7791;47.246;9.648;2024-01-10T02:13:02;-1.50;99.90
15386;DHT22;7791;47.246;9.648;2024-01-10T02:15:48;-1.60;99.90
15386;DHT22;7791;47.246;9.648;2024-01-10T02:18:29;-1.50;99.90
15386;DHT22;7791;47.246;9.648;2024-01-10T02:21:01;-1.50;99.90
15386;DHT22;7791;47.246;9.648;2024-01-10T02:23:56;-1.50;99.90
15386;DHT22;7791;47.246;9.648;2024-01-10T02:26:41;-1.50;99.90
15386;DHT22;7791;47.246;9.648;2024-01-10T02:29:19;-1.40;99.90
15386;DHT22;7791;47.246;9.648;2024-01-10T02:34:40;-1.30;99.90
15386;DHT22;7791;47.246;9.648;2024-01-10T02:37:11;-1.30;99.90
15386;DHT22;7791;47.246;9.648;2024-01-10T02:39:53;-1.20;99.90
15386;DHT22;7791;47.246;9.648;2024-01-10T02:44:18;-1.30;99.90
15386;DHT22;7791;47.246;9.648;2024-01-10T02:45:52;-1.20;99.90
15386;DHT22;7791;47.246;9.648;2024-01-10T02:48:39;-1.20;99.90
15386;DHT22;7791;47.246;9.648;2024-01-10T02:51:27;-1.10;99.90
15386;DHT22;7791;47.246;9.648;2024-01-10T02:54:21;-1.10;99.90
15386;DHT22;7791;47.246;9.648;2024-01-10T02:56:57;-1.10;99.90
15386;DHT22;7791;47.246;9.648;2024-01-10T02:59:42;-1.20;99.90
15386;DHT22;7791;47.246;9.648;2024-01-10T03:02:20;-1.20;99.90
15386;DHT22;7791;47.246;9.648;2024-01-10T03:04:55;-1.20;99.90
15386;DHT22;7791;47.246;9.648;2024-01-10T03:07:57;-1.30;99.90
15386;DHT22;7791;47.246;9.648;2024-01-10T03:10:35;-1.40;99.90
15386;DHT22;7791;47.246;9.648;2024-01-10T03:13:24;-1.30;99.90
15386;DHT22;7791;47.246;9.648;2024-01-10T03:15:56;-1.30;99.90
15386;DHT22;7791;47.246;9.648;2024-01-10T03:18:44;-1.40;99.90
15386;DHT22;7791;47.246;9.648;2024-01-10T03:21:19;-1.50;99.90
15386;DHT22;7791;47.246;9.648;2024-01-10T03:24:08;-1.60;99.90
15386;DHT22;7791;47.246;9.648;2024-01-10T03:27:00;-1.70;99.90
15386;DHT22;7791;47.246;9.648;2024-01-10T03:29:46;-1.90;99.90
15386;DHT22;7791;47.246;9.648;2024-01-10T03:35:05;-2.10;99.90
15386;DHT22;7791;47.246;9.648;2024-01-10T03:37:46;-2.20;99.90
15386;DHT22;7791;47.246;9.648;2024-01-10T03:40:23;-2.30;99.90
15386;DHT22;7791;47.246;9.648;2024-01-10T03:42:59;-2.40;99.90
15386;DHT22;7791;47.246;9.648;2024-01-10T03:45:39;-2.50;99.90
15386;DHT22;7791;47.246;9.648;2024-01-10T03:48:26;-2.60;99.90
15386;DHT22;7791;47.246;9.648;2024-01-10T03:51:14;-2.70;99.90
15386;DHT22;7791;47.246;9.648;2024-01-10T03:53:46;-2.80;99.90
15386;DHT22;7791;47.246;9.648;2024-01-10T03:56:22;-3.00;99.90
15386;DHT22;7791;47.246;9.648;2024-01-10T03:59:02;-3.10;99.90
15386;DHT22;7791;47.246;9.648;2024-01-10T04:01:44;-3.20;99.90
15386;DHT22;7791;47.246;9.648;2024-01-10T04:04:43;-3.30;99.90
15386;DHT22;7791;47.246;9.648;2024-01-10T04:07:31;-3.40;99.90
15386;DHT22;7791;47.246;9.648;2024-01-10T04:10:12;-3.50;99.90
15386;DHT22;7791;47.246;9.648;2024-01-10T04:12:48;-3.60;99.90
15386;DHT22;7791;47.246;9.648;2024-01-10T04:15:48;-3.70;99.90
15386;DHT22;7791;47.246;9.648;2024-01-10T04:18:23;-3.70;99.90
15386;DHT22;7791;47.246;9.648;2024-01-10T04:21:00;-3.70;99.90
15386;DHT22;7791;47.246;9.648;2024-01-10T04:23:46;-3.80;99.90
15386;DHT22;7791;47.246;9.648;2024-01-10T04:26:32;-3.80;99.90
15386;DHT22;7791;47.246;9.648;2024-01-10T04:29:05;-3.80;99.90
15386;DHT22;7791;47.246;9.648;2024-01-10T04:34:32;-3.90;99.90
15386;DHT22;7791;47.246;9.648;2024-01-10T04:37:08;-3.90;99.90
15386;DHT22;7791;47.246;9.648;2024-01-10T04:39:45;-4.00;99.90
15386;DHT22;7791;47.246;9.648;2024-01-10T04:42:43;-4.10;99.90
15386;DHT22;7791;47.246;9.648;2024-01-10T04:45:22;-4.10;99.90
15386;DHT22;7791;47.246;9.648;2024-01-10T04:48:04;-4.10;99.90
15386;DHT22;7791;47.246;9.648;2024-01-10T04:50:40;-4.20;99.90
15386;DHT22;7791;47.246;9.648;2024-01-10T04:53:22;-4.20;99.90
15386;DHT22;7791;47.246;9.648;2024-01-10T04:56:22;-4.10;99.90
15386;DHT22;7791;47.246;9.648;2024-01-10T04:59:10;-4.00;99.90
15386;DHT22;7791;47.246;9.648;2024-01-10T05:01:43;-3.90;99.90
15386;DHT22;7791;47.246;9.648;2024-01-10T05:04:29;-3.90;99.90
15386;DHT22;7791;47.246;9.648;2024-01-10T05:07:17;-3.90;99.90
15386;DHT22;7791;47.246;9.648;2024-01-10T05:09:59;-4.00;99.90
15386;DHT22;7791;47.246;9.648;2024-01-10T05:12:35;-4.00;99.90
15386;DHT22;7791;47.246;9.648;2024-01-10T05:15:07;-4.00;99.90
15386;DHT22;7791;47.246;9.648;2024-01-10T05:17:48;-4.10;99.90
15386;DHT22;7791;47.246;9.648;2024-01-10T05:20:34;-4.10;99.90
15386;DHT22;7791;47.246;9.648;2024-01-10T05:26:40;-4.20;99.90
15386;DHT22;7791;47.246;9.648;2024-01-10T05:29:19;-4.20;99.90
15386;DHT22;7791;47.246;9.648;2024-01-10T05:31:57;-4.30;99.90
15386;DHT22;7791;47.246;9.648;2024-01-10T05:34:38;-4.30;99.90
15386;DHT22;7791;47.246;9.648;2024-01-10T05:37:21;-4.40;99.90
15386;DHT22;7791;47.246;9.648;2024-01-10T05:40:03;-4.40;99.90
15386;DHT22;7791;47.246;9.648;2024-01-10T05:42:49;-4.30;99.90
15386;DHT22;7791;47.246;9.648;2024-01-10T05:45:31;-4.40;99.90
15386;DHT22;7791;47.246;9.648;2024-01-10T05:48:16;-4.40;99.90
15386;DHT22;7791;47.246;9.648;2024-01-10T05:50:55;-4.50;99.90
15386;DHT22;7791;47.246;9.648;2024-01-10T05:53:55;-4.50;99.90
15386;DHT22;7791;47.246;9.648;2024-01-10T05:56:33;-4.40;99.90
15386;DHT22;7791;47.246;9.648;2024-01-10T05:59:18;-4.40;99.90
15386;DHT22;7791;47.246;9.648;2024-01-10T06:02:04;-4.40;99.90
15386;DHT22;7791;47.246;9.648;2024-01-10T06:04:39;-4.50;99.90
15386;DHT22;7791;47.246;9.648;2024-01-10T06:07:18;-4.50;99.90
15386;DHT22;7791;47.246;9.648;2024-01-10T06:10:04;-4.50;99.90
15386;DHT22;7791;47.246;9.648;2024-01-10T06:13:00;-4.50;99.90
15386;DHT22;7791;47.246;9.648;2024-01-10T06:15:49;-4.60;99.90
15386;DHT22;7791;47.246;9.648;2024-01-10T06:18:40;-4.70;99.90
15386;DHT22;7791;47.246;9.648;2024-01-10T06:21:18;-4.70;99.90
15386;DHT22;7791;47.246;9.648;2024-01-10T06:26:51;-4.80;99.90
15386;DHT22;7791;47.246;9.648;2024-01-10T06:29:36;-4.80;99.90
15386;DHT22;7791;47.246;9.648;2024-01-10T06:35:12;-4.80;99.90
15386;DHT22;7791;47.246;9.648;2024-01-10T06:38:09;-4.90;99.90
15386;DHT22;7791;47.246;9.648;2024-01-10T06:40:55;-4.90;99.90
15386;DHT22;7791;47.246;9.648;2024-01-10T06:43:40;-4.90;99.90
15386;DHT22;7791;47.246;9.648;2024-01-10T06:46:16;-4.90;99.90
15386;DHT22;7791;47.246;9.648;2024-01-10T06:48:49;-4.90;99.90
15386;DHT22;7791;47.246;9.648;2024-01-10T06:51:24;-4.90;99.90
15386;DHT22;7791;47.246;9.648;2024-01-10T06:54:17;-5.00;99.90
15386;DHT22;7791;47.246;9.648;2024-01-10T06:56:52;-4.90;99.90
15386;DHT22;7791;47.246;9.648;2024-01-10T06:59:40;-5.00;99.90
15386;DHT22;7791;47.246;9.648;2024-01-10T07:05:12;-5.00;99.90
15386;DHT22;7791;47.246;9.648;2024-01-10T07:07:57;-5.10;99.90
15386;DHT22;7791;47.246;9.648;2024-01-10T07:10:46;-5.10;99.90
15386;DHT22;7791;47.246;9.648;2024-01-10T07:13:31;-5.00;99.90
15386;DHT22;7791;47.246;9.648;2024-01-10T07:16:31;-5.00;99.90
15386;DHT22;7791;47.246;9.648;2024-01-10T07:21:47;-4.90;99.90
15386;DHT22;7791;47.246;9.648;2024-01-10T07:24:26;-4.90;99.90
15386;DHT22;7791;47.246;9.648;2024-01-10T07:27:13;-4.80;99.90
15386;DHT22;7791;47.246;9.648;2024-01-10T07:29:52;-4.70;99.90
15386;DHT22;7791;47.246;9.648;2024-01-10T07:32:31;-4.70;99.90
15386;DHT22;7791;47.246;9.648;2024-01-10T07:35:07;-4.60;99.90
15386;DHT22;7791;47.246;9.648;2024-01-10T07:37:54;-4.60;99.90
15386;DHT22;7791;47.246;9.648;2024-01-10T07:40:36;-4.50;99.90
15386;DHT22;7791;47.246;9.648;2024-01-10T07:43:25;-4.50;99.90
15386;DHT22;7791;47.246;9.648;2024-01-10T07:46:03;-4.50;99.90
15386;DHT22;7791;47.246;9.648;2024-01-10T07:48:36;-4.50;99.90
15386;DHT22;7791;47.246;9.648;2024-01-10T07:51:21;-4.40;99.90
15386;DHT22;7791;47.246;9.648;2024-01-10T07:53:59;-4.40;99.90
15386;DHT22;7791;47.246;9.648;2024-01-10T07:56:38;-4.30;99.90
15386;DHT22;7791;47.246;9.648;2024-01-10T07:59:24;-4.20;99.90
15386;DHT22;7791;47.246;9.648;2024-01-10T08:02:17;-4.20;99.90
15386;DHT22;7791;47.246;9.648;2024-01-10T08:04:58;-4.10;99.90
15386;DHT22;7791;47.246;9.648;2024-01-10T08:07:37;-4.10;99.90
15386;DHT22;7791;47.246;9.648;2024-01-10T08:10:25;-4.00;99.90
15386;DHT22;7791;47.246;9.648;2024-01-10T08:13:07;-4.00;99.90
15386;DHT22;7791;47.246;9.648;2024-01-10T08:15:50;-4.10;99.90
15386;DHT22;7791;47.246;9.648;2024-01-10T08:18:45;-4.00;99.90
15386;DHT22;7791;47.246;9.648;2024-01-10T08:21:23;-3.80;99.90
15386;DHT22;7791;47.246;9.648;2024-01-10T08:24:18;-3.50;99.90
15386;DHT22;7791;47.246;9.648;2024-01-10T08:26:56;-2.90;99.90
15386;DHT22;7791;47.246;9.648;2024-01-10T08:29:31;-2.20;99.90
15386;DHT22;7791;47.246;9.648;2024-01-10T08:32:11;-1.20;99.90
15386;DHT22;7791;47.246;9.648;2024-01-10T08:34:56;-0.20;99.90
15386;DHT22;7791;47.246;9.648;2024-01-10T08:37:35;0.40;99.90
15386;DHT22;7791;47.246;9.648;2024-01-10T08:40:19;1.00;99.90
15386;DHT22;7791;47.246;9.648;2024-01-10T08:43:05;1.40;99.90
15386;DHT22;7791;47.246;9.648;2024-01-10T08:45:54;1.60;99.90
15386;DHT22;7791;47.246;9.648;2024-01-10T08:48:45;1.80;99.90
15386;DHT22;7791;47.246;9.648;2024-01-10T08:51:39;2.10;99.90
15386;DHT22;7791;47.246;9.648;2024-01-10T08:54:15;2.50;99.90
15386;DHT22;7791;47.246;9.648;2024-01-10T08:59:45;3.10;99.90
15386;DHT22;7791;47.246;9.648;2024-01-10T09:05:11;3.70;99.90
15386;DHT22;7791;47.246;9.648;2024-01-10T09:07:44;4.20;99.90
15386;DHT22;7791;47.246;9.648;2024-01-10T09:13:14;4.90;99.90
15386;DHT22;7791;47.246;9.648;2024-01-10T09:19:07;5.60;99.90
15386;DHT22;7791;47.246;9.648;2024-01-10T09:21:40;6.30;99.90
15386;DHT22;7791;47.246;9.648;2024-01-10T09:24:19;6.50;99.90
15386;DHT22;7791;47.246;9.648;2024-01-10T09:27:09;6.70;99.90
15386;DHT22;7791;47.246;9.648;2024-01-10T09:29:42;6.80;99.90
15386;DHT22;7791;47.246;9.648;2024-01-10T09:32:22;7.00;99.90
15386;DHT22;7791;47.246;9.648;2024-01-10T09:34:59;7.40;99.90
15386;DHT22;7791;47.246;9.648;2024-01-10T09:37:31;7.80;99.90
15386;DHT22;7791;47.246;9.648;2024-01-10T09:40:16;8.00;99.90
15386;DHT22;7791;47.246;9.648;2024-01-10T09:43:01;7.70;99.90
15386;DHT22;7791;47.246;9.648;2024-01-10T09:45:46;7.30;99.90
15386;DHT22;7791;47.246;9.648;2024-01-10T09:48:26;7.00;99.90
15386;DHT22;7791;47.246;9.648;2024-01-10T09:51:12;6.70;99.90
15386;DHT22;7791;47.246;9.648;2024-01-10T09:53:47;6.60;99.90
15386;DHT22;7791;47.246;9.648;2024-01-10T09:56:49;6.40;99.90
15386;DHT22;7791;47.246;9.648;2024-01-10T09:59:24;6.60;99.90
15386;DHT22;7791;47.246;9.648;2024-01-10T10:02:03;7.10;99.90
15386;DHT22;7791;47.246;9.648;2024-01-10T10:11:06;8.10;99.90
15386;DHT22;7791;47.246;9.648;2024-01-10T10:13:41;8.70;99.90
15386;DHT22;7791;47.246;9.648;2024-01-10T10:16:31;9.10;99.90
15386;DHT22;7791;47.246;9.648;2024-01-10T10:19:13;9.30;99.90
15386;DHT22;7791;47.246;9.648;2024-01-10T10:22:10;9.10;99.90
15386;DHT22;7791;47.246;9.648;2024-01-10T10:24:47;8.80;99.90
15386;DHT22;7791;47.246;9.648;2024-01-10T10:27:33;8.40;99.90
15386;DHT22;7791;47.246;9.648;2024-01-10T10:30:15;8.70;99.90
15386;DHT22;7791;47.246;9.648;2024-01-10T10:32:51;9.10;99.90
15386;DHT22;7791;47.246;9.648;2024-01-10T10:35:33;9.30;99.90
15386;DHT22;7791;47.246;9.648;2024-01-10T10:38:09;9.10;99.90
15386;DHT22;7791;47.246;9.648;2024-01-10T10:40:46;8.20;99.90
15386;DHT22;7791;47.246;9.648;2024-01-10T10:43:26;7.90;99.90
15386;DHT22;7791;47.246;9.648;2024-01-10T10:46:17;7.80;99.90
15386;DHT22;7791;47.246;9.648;2024-01-10T10:49:14;8.10;99.90
15386;DHT22;7791;47.246;9.648;2024-01-10T10:52:02;8.30;99.90
15386;DHT22;7791;47.246;9.648;2024-01-10T10:55:01;8.30;99.90
15386;DHT22;7791;47.246;9.648;2024-01-10T10:58:03;8.30;99.90
15386;DHT22;7791;47.246;9.648;2024-01-10T11:00:52;8.30;99.90
15386;DHT22;7791;47.246;9.648;2024-01-10T11:03:30;8.80;99.90
15386;DHT22;7791;47.246;9.648;2024-01-10T11:06:16;9.10;99.90
15386;DHT22;7791;47.246;9.648;2024-01-10T11:08:59;9.10;99.90
15386;DHT22;7791;47.246;9.648;2024-01-10T11:17:34;8.20;99.90
15386;DHT22;7791;47.246;9.648;2024-01-10T11:20:36;8.30;99.90
15386;DHT22;7791;47.246;9.648;2024-01-10T11:23:38;8.60;99.90
15386;DHT22;7791;47.246;9.648;2024-01-10T11:26:29;9.00;99.90
15386;DHT22;7791;47.246;9.648;2024-01-10T11:29:10;8.20;99.90
15386;DHT22;7791;47.246;9.648;2024-01-10T11:32:11;7.60;99.90
15386;DHT22;7791;47.246;9.648;2024-01-10T11:35:10;8.30;99.90
15386;DHT22;7791;47.246;9.648;2024-01-10T11:37:52;8.50;99.90
15386;DHT22;7791;47.246;9.648;2024-01-10T11:40:56;7.10;99.90
15386;DHT22;7791;47.246;9.648;2024-01-10T11:43:38;7.60;99.90
15386;DHT22;7791;47.246;9.648;2024-01-10T11:46:36;6.80;99.90
15386;DHT22;7791;47.246;9.648;2024-01-10T11:49:25;5.70;99.90
15386;DHT22;7791;47.246;9.648;2024-01-10T11:54:59;4.80;99.90
15386;DHT22;7791;47.246;9.648;2024-01-10T12:00:48;4.20;99.90
15386;DHT22;7791;47.246;9.648;2024-01-10T12:03:32;3.80;99.90
15386;DHT22;7791;47.246;9.648;2024-01-10T12:06:06;4.00;99.90
15386;DHT22;7791;47.246;9.648;2024-01-10T12:08:47;3.90;99.90
15386;DHT22;7791;47.246;9.648;2024-01-10T12:11:38;4.00;99.90
15386;DHT22;7791;47.246;9.648;2024-01-10T12:14:11;3.90;99.90
15386;DHT22;7791;47.246;9.648;2024-01-10T12:16:58;4.10;99.90
15386;DHT22;7791;47.246;9.648;2024-01-10T12:19:40;3.90;99.90
15386;DHT22;7791;47.246;9.648;2024-01-10T12:22:19;3.90;99.90
15386;DHT22;7791;47.246;9.648;2024-01-10T12:25:08;3.80;99.90
15386;DHT22;7791;47.246;9.648;2024-01-10T12:30:56;3.60;99.90
15386;DHT22;7791;47.246;9.648;2024-01-10T12:33:32;3.60;99.90
15386;DHT22;7791;47.246;9.648;2024-01-10T12:36:18;3.70;99.90
15386;DHT22;7791;47.246;9.648;2024-01-10T12:39:06;3.60;99.90
15386;DHT22;7791;47.246;9.648;2024-01-10T12:41:41;3.20;99.90
15386;DHT22;7791;47.246;9.648;2024-01-10T12:44:35;3.20;99.90
15386;DHT22;7791;47.246;9.648;2024-01-10T12:47:26;3.10;99.90
15386;DHT22;7791;47.246;9.648;2024-01-10T12:50:14;3.00;99.90
15386;DHT22;7791;47.246;9.648;2024-01-10T12:52:50;2.80;99.90
15386;DHT22;7791;47.246;9.648;2024-01-10T12:58:24;2.80;99.90
15386;DHT22;7791;47.246;9.648;2024-01-10T13:00:59;2.90;99.90
15386;DHT22;7791;47.246;9.648;2024-01-10T13:03:45;3.00;99.90
15386;DHT22;7791;47.246;9.648;2024-01-10T13:06:34;3.00;99.90
15386;DHT22;7791;47.246;9.648;2024-01-10T13:11:58;2.70;99.90
15386;DHT22;7791;47.246;9.648;2024-01-10T13:14:31;2.40;99.90
15386;DHT22;7791;47.246;9.648;2024-01-10T13:17:12;2.30;99.90
15386;DHT22;7791;47.246;9.648;2024-01-10T13:19:48;2.30;99.90
15386;DHT22;7791;47.246;9.648;2024-01-10T13:22:29;2.20;99.90
15386;DHT22;7791;47.246;9.648;2024-01-10T13:25:13;2.30;99.90
15386;DHT22;7791;47.246;9.648;2024-01-10T13:27:42;2.10;99.90
15386;DHT22;7791;47.246;9.648;2024-01-10T13:30:31;2.10;99.90
15386;DHT22;7791;47.246;9.648;2024-01-10T13:33:16;2.00;99.90
15386;DHT22;7791;47.246;9.648;2024-01-10T13:35:52;2.10;99.90
15386;DHT22;7791;47.246;9.648;2024-01-10T13:38:36;2.10;99.90
15386;DHT22;7791;47.246;9.648;2024-01-10T13:41:11;2.30;99.90
15386;DHT22;7791;47.246;9.648;2024-01-10T13:43:48;2.30;99.90
15386;DHT22;7791;47.246;9.648;2024-01-10T13:46:24;2.40;99.90
15386;DHT22;7791;47.246;9.648;2024-01-10T13:52:05;2.50;99.90
15386;DHT22;7791;47.246;9.648;2024-01-10T13:54:40;2.50;99.90
15386;DHT22;7791;47.246;9.648;2024-01-10T13:57:31;2.60;99.90
15386;DHT22;7791;47.246;9.648;2024-01-10T14:00:26;2.50;99.90
15386;DHT22;7791;47.246;9.648;2024-01-10T14:03:07;2.30;99.90
15386;DHT22;7791;47.246;9.648;2024-01-10T14:05:51;2.20;99.90
15386;DHT22;7791;47.246;9.648;2024-01-10T14:08:30;2.20;99.90
15386;DHT22;7791;47.246;9.648;2024-01-10T14:11:06;2.30;99.90
15386;DHT22;7791;47.246;9.648;2024-01-10T14:13:45;2.30;99.90
15386;DHT22;7791;47.246;9.648;2024-01-10T14:16:18;2.30;99.90
15386;DHT22;7791;47.246;9.648;2024-01-10T14:19:04;2.20;99.90
15386;DHT22;7791;47.246;9.648;2024-01-10T14:21:34;2.20;99.90
15386;DHT22;7791;47.246;9.648;2024-01-10T14:26:56;2.20;99.90
15386;DHT22;7791;47.246;9.648;2024-01-10T14:29:29;2.10;99.90
15386;DHT22;7791;47.246;9.648;2024-01-10T14:34:50;2.00;99.90
15386;DHT22;7791;47.246;9.648;2024-01-10T14:37:29;2.00;99.90
15386;DHT22;7791;47.246;9.648;2024-01-10T14:40:06;1.90;99.90
15386;DHT22;7791;47.246;9.648;2024-01-10T14:42:54;1.80;99.90
15386;DHT22;7791;47.246;9.648;2024-01-10T14:45:39;1.70;99.90
15386;DHT22;7791;47.246;9.648;2024-01-10T14:48:17;1.60;99.90
15386;DHT22;7791;47.246;9.648;2024-01-10T14:53:43;1.30;99.90
15386;DHT22;7791;47.246;9.648;2024-01-10T14:56:22;1.30;99.90
15386;DHT22;7791;47.246;9.648;2024-01-10T15:02:03;1.30;99.90
15386;DHT22;7791;47.246;9.648;2024-01-10T15:04:38;1.20;99.90
15386;DHT22;7791;47.246;9.648;2024-01-10T15:10:09;1.10;99.90
15386;DHT22;7791;47.246;9.648;2024-01-10T15:15:45;0.90;99.90
15386;DHT22;7791;47.246;9.648;2024-01-10T15:18:37;0.80;99.90
15386;DHT22;7791;47.246;9.648;2024-01-10T15:21:19;0.70;99.90
15386;DHT22;7791;47.246;9.648;2024-01-10T15:24:05;0.70;99.90
15386;DHT22;7791;47.246;9.648;2024-01-10T15:26:34;0.70;99.90
15386;DHT22;7791;47.246;9.648;2024-01-10T15:32:15;0.60;99.90
15386;DHT22;7791;47.246;9.648;2024-01-10T15:34:53;0.60;99.90
15386;DHT22;7791;47.246;9.648;2024-01-10T15:37:32;0.50;99.90
15386;DHT22;7791;47.246;9.648;2024-01-10T15:40:12;0.40;99.90
15386;DHT22;7791;47.246;9.648;2024-01-10T15:42:45;0.20;99.90
15386;DHT22;7791;47.246;9.648;2024-01-10T15:45:17;0.00;99.90
15386;DHT22;7791;47.246;9.648;2024-01-10T15:47:58;-0.10;99.90
15386;DHT22;7791;47.246;9.648;2024-01-10T15:50:38;-0.20;99.90
15386;DHT22;7791;47.246;9.648;2024-01-10T15:53:23;-0.30;99.90
15386;DHT22;7791;47.246;9.648;2024-01-10T15:56:04;-0.50;99.90
15386;DHT22;7791;47.246;9.648;2024-01-10T16:01:45;-0.50;99.90
15386;DHT22;7791;47.246;9.648;2024-01-10T16:04:17;-0.70;99.90
15386;DHT22;7791;47.246;9.648;2024-01-10T16:06:58;-0.70;99.90
15386;DHT22;7791;47.246;9.648;2024-01-10T16:09:53;-0.70;99.90
15386;DHT22;7791;47.246;9.648;2024-01-10T16:12:30;-0.70;99.90
15386;DHT22;7791;47.246;9.648;2024-01-10T16:15:20;-0.70;99.90
15386;DHT22;7791;47.246;9.648;2024-01-10T16:18:02;-0.70;99.90
15386;DHT22;7791;47.246;9.648;2024-01-10T16:20:57;-0.50;99.90
15386;DHT22;7791;47.246;9.648;2024-01-10T16:23:32;-0.40;99.90
15386;DHT22;7791;47.246;9.648;2024-01-10T16:26:14;-0.30;99.90
15386;DHT22;7791;47.246;9.648;2024-01-10T16:28:56;-0.20;99.90
15386;DHT22;7791;47.246;9.648;2024-01-10T16:31:37;-0.10;99.90
15386;DHT22;7791;47.246;9.648;2024-01-10T16:34:10;0.00;99.90
15386;DHT22;7791;47.246;9.648;2024-01-10T16:36:47;0.10;99.90
15386;DHT22;7791;47.246;9.648;2024-01-10T16:39:21;0.10;99.90
15386;DHT22;7791;47.246;9.648;2024-01-10T16:42:00;0.20;99.90
15386;DHT22;7791;47.246;9.648;2024-01-10T16:44:33;0.20;99.90
15386;DHT22;7791;47.246;9.648;2024-01-10T16:47:06;0.30;99.90
15386;DHT22;7791;47.246;9.648;2024-01-10T16:50:02;0.40;99.90
15386;DHT22;7791;47.246;9.648;2024-01-10T16:52:44;0.50;99.90
15386;DHT22;7791;47.246;9.648;2024-01-10T16:55:29;0.50;99.90
15386;DHT22;7791;47.246;9.648;2024-01-10T17:10:02;0.50;99.90
15386;DHT22;7791;47.246;9.648;2024-01-10T17:12:35;0.50;99.90
15386;DHT22;7791;47.246;9.648;2024-01-10T17:18:10;0.60;99.90
15386;DHT22;7791;47.246;9.648;2024-01-10T17:20:49;0.60;99.90
15386;DHT22;7791;47.246;9.648;2024-01-10T17:23:35;0.60;99.90
15386;DHT22;7791;47.246;9.648;2024-01-10T17:26:10;0.70;99.90
15386;DHT22;7791;47.246;9.648;2024-01-10T17:28:52;0.80;99.90
15386;DHT22;7791;47.246;9.648;2024-01-10T17:31:27;0.80;99.90
15386;DHT22;7791;47.246;9.648;2024-01-10T17:34:08;0.80;99.90
15386;DHT22;7791;47.246;9.648;2024-01-10T17:36:47;0.80;99.90
15386;DHT22;7791;47.246;9.648;2024-01-10T17:39:34;0.80;99.90
15386;DHT22;7791;47.246;9.648;2024-01-10T17:42:14;0.80;99.90
15386;DHT22;7791;47.246;9.648;2024-01-10T17:44:49;0.90;99.90
15386;DHT22;7791;47.246;9.648;2024-01-10T17:47:29;1.00;99.90
15386;DHT22;7791;47.246;9.648;2024-01-10T17:52:56;1.10;99.90
15386;DHT22;7791;47.246;9.648;2024-01-10T17:55:32;1.10;99.90
15386;DHT22;7791;47.246;9.648;2024-01-10T17:58:07;1.20;99.90
15386;DHT22;7791;47.246;9.648;2024-01-10T18:00:39;1.10;99.90
15386;DHT22;7791;47.246;9.648;2024-01-10T18:03:33;1.10;99.90
15386;DHT22;7791;47.246;9.648;2024-01-10T18:06:23;1.20;99.90
15386;DHT22;7791;47.246;9.648;2024-01-10T18:09:01;1.20;99.90
15386;DHT22;7791;47.246;9.648;2024-01-10T18:14:34;1.30;99.90
15386;DHT22;7791;47.246;9.648;2024-01-10T18:17:12;1.40;99.90
15386;DHT22;7791;47.246;9.648;2024-01-10T18:19:44;1.40;99.90
15386;DHT22;7791;47.246;9.648;2024-01-10T18:22:35;1.40;99.90
15386;DHT22;7791;47.246;9.648;2024-01-10T18:25:19;1.40;99.90
15386;DHT22;7791;47.246;9.648;2024-01-10T18:27:57;1.40;99.90
15386;DHT22;7791;47.246;9.648;2024-01-10T18:31:16;1.20;99.90
15386;DHT22;7791;47.246;9.648;2024-01-10T18:33:33;1.10;99.90
15386;DHT22;7791;47.246;9.648;2024-01-10T18:36:12;1.20;99.90
15386;DHT22;7791;47.246;9.648;2024-01-10T18:41:49;1.30;99.90
15386;DHT22;7791;47.246;9.648;2024-01-10T18:44:27;1.40;99.90
15386;DHT22;7791;47.246;9.648;2024-01-10T18:47:02;1.40;99.90
15386;DHT22;7791;47.246;9.648;2024-01-10T18:49:37;1.40;99.90
15386;DHT22;7791;47.246;9.648;2024-01-10T18:52:22;1.30;99.90
15386;DHT22;7791;47.246;9.648;2024-01-10T18:55:00;1.40;99.90
15386;DHT22;7791;47.246;9.648;2024-01-10T19:00:27;1.40;99.90
15386;DHT22;7791;47.246;9.648;2024-01-10T19:03:07;1.50;99.90
15386;DHT22;7791;47.246;9.648;2024-01-10T19:05:39;1.50;99.90
15386;DHT22;7791;47.246;9.648;2024-01-10T19:08:15;1.40;99.90
15386;DHT22;7791;47.246;9.648;2024-01-10T19:10:56;1.40;99.90
15386;DHT22;7791;47.246;9.648;2024-01-10T19:13:35;1.30;99.90
15386;DHT22;7791;47.246;9.648;2024-01-10T19:16:17;1.30;99.90
15386;DHT22;7791;47.246;9.648;2024-01-10T19:18:50;1.30;99.90
15386;DHT22;7791;47.246;9.648;2024-01-10T19:21:24;1.30;99.90
15386;DHT22;7791;47.246;9.648;2024-01-10T19:24:14;1.20;99.90
15386;DHT22;7791;47.246;9.648;2024-01-10T19:27:01;1.30;99.90
15386;DHT22;7791;47.246;9.648;2024-01-10T19:29:40;1.40;99.90
15386;DHT22;7791;47.246;9.648;2024-01-10T19:32:12;1.40;99.90
15386;DHT22;7791;47.246;9.648;2024-01-10T19:34:54;1.40;99.90
15386;DHT22;7791;47.246;9.648;2024-01-10T19:37:53;1.50;99.90
15386;DHT22;7791;47.246;9.648;2024-01-10T19:40:28;1.50;99.90
15386;DHT22;7791;47.246;9.648;2024-01-10T19:43:23;1.50;99.90
15386;DHT22;7791;47.246;9.648;2024-01-10T19:46:01;1.50;99.90
15386;DHT22;7791;47.246;9.648;2024-01-10T19:48:39;1.30;99.90
15386;DHT22;7791;47.246;9.648;2024-01-10T19:51:25;1.30;99.90
15386;DHT22;7791;47.246;9.648;2024-01-10T19:54:11;1.20;99.90
15386;DHT22;7791;47.246;9.648;2024-01-10T20:00:06;1.00;99.90